FALA

Lanseria Airport

Johannesburg, South Africa
METAR FALA 251800Z 00000KT CAVOK 24/02 Q1020 NOSIG
Observed Flight Rules
Sep-25 @ 18:00 UTC (an hour ago) Visual Flight Rules
Visibility Clouds
10,000+ meters
  • Clear skies
Temperatures Readings
Current 24°C / 75°F
Dewpoint 2°C / 36°F
Humidity 24%
Altimeter 30.12" Hg
Pressure 1020 hPa
Elevation 1377
METAR FALA 251800Z 00000KT CAVOK 24/02 Q1020 NOSIG
Observed Flight Rules
Sep-25 @ 18:00 UTC
(an hour ago)
VFR
Clouds
  • Clear skies
Temperature Dewpoint
24°C / 75°F 2°C / 36°F
Humidity Altimeter Pressure
24% 30.12" Hg 1020 hPa